Flight EZE1533

  • Submitted By: Dave Hardy
  • Departure Airport: Glasgow (EGPF)
  • Arrival Airport: Muenster / Osnabrueck (EDDG)
  • Aircraft: SB20 (G-CDEA)
  • Flight Time: 01.51
  • Date Submitted: 02/20/2009
  • Status: Accepted
Flight Details
Gross Revenue:
(25 load / £ 0.00 per unit
£ 0.00
Fuel Cost:
(4675 fuel used @ 0 / unit)
£ 0.00

Flight Details

  • VATAWARE Link: -

Additional Log Information:

View Log

[2009/02/20 12:40:00]
Flight IATA:EZE1533
Pilot Number:EZE0001
Company ICAO:EZE
Aircraft Type:SB20
PAX:25
Aircraft Registration:SB20
Departing Airport: EGPF
Destination Airport: EDDG
Online: VATSIM
Route:TLA UL602 NATEB UN97 ROKAN UM982 TOPPA UL74 MONIL UP62 PAM UL620 ARNEM UL603 TEBRO T150 ABAMI UM170 DOMEG
Flight Level:27000
12:40 Zero fuel Weight: 39784 Lbs, Fuel Weight: 6677 Lbs
12:40 VATSIM:EGPF 201820Z 25014KT 9999 FEW020 BKN028 08/05 Q1029
12:40 VATSIM:EDDG 201820Z 32009KT 9999 FEW010 BKN016 04/02 Q1028 TEMPO BKN012
12:43 Parking Brakes off
12:43 Com1 Freq=124.85
12:46 Com1 Freq=119.85
12:46 Com1 Freq=118.85
12:46 Com1 Freq=118.82
12:46 Com1 Freq=118.80
12:46 Com1 Freq=122.80
12:57 Com1 Freq=118.80
13:03 VR= 167 Knots
13:03 V2= 176 Knots
13:03 Take-off
13:03 Take off Weight: 45975 Lbs
13:03 Wind: 257 @ 013 Knots Heading: 226
13:03 POS N55 52 19 W004 26 01
13:03 N11 132 N12 132
13:03 Gear Up: 188 Knots
13:03 Flaps: at 188 Knots
13:06 Flaps:Up at 249 Knots
13:14 Com1 Freq=122.80
13:14 Com1 Freq=122.77
13:14 Com1 Freq=122.80
13:14 Com1 Freq=118.80
13:14 Com1 Freq=118.82
13:14 Com1 Freq=118.92
13:14 Com1 Freq=118.82
13:14 Com1 Freq=118.70
13:14 Com1 Freq=118.72
13:14 Com1 Freq=134.72
13:14 Com1 Freq=124.72
13:14 Com1 Freq=125.72
13:15 Com1 Freq=122.80
13:16 TOC
13:16 Fuel Weight: 5193 Lb
13:18 Wind:338@035 Knots Heading: 113 Ground Speed: 432 Knots Altitude 27457 ft
13:33 Wind:338@042 Knots Heading: 111 Ground Speed: 437 Knots Altitude 27539 ft
13:43 Com1 Freq=125.72
13:43 Com1 Freq=122.80
13:43 Com1 Freq=125.72
13:43 Com1 Freq=125.75
13:48 Wind:358@057 Knots Heading: 135 Ground Speed: 447 Knots Altitude 27473 ft
14:03 Wind:007@054 Knots Heading: 103 Ground Speed: 411 Knots Altitude27493 ft
14:05 TOD
14:05 Fuel Weight: 2781 Lb
14:08 Com1 Freq=125.70
14:08 Com1 Freq=125.57
14:08 Com1 Freq=125.55
14:09 Com1 Freq=124.55
14:09 Com1 Freq=129.55
14:09 Com1 Freq=128.55
14:16 Com1 Freq=122.80
14:18 Wind:333@022 Knots Heading: 072 Ground Speed: 254 Knots Altitude 7427 ft
14:24 Flaps: at 198 Knots
14:27 Flaps: at 196 Knots
14:27 Gear Down: 197 Knots
14:29 Flaps: at 176 Knots
14:30 TouchDown:Rate -153 ft/min Speed: 132 Knots
14:30 VATSIM:EDDG 201950Z 31006KT 9999 FEW007 BKN010 04/02 Q1028 NOSIG
14:30 Land
14:30 Wind:301@005 Knots
14:30 Heading: 248
14:30 Flight Duration: 01:27
14:30 Landing Weight: 41875 Lbs
14:30 POS N52 07 57 E007 40 30
14:34 Parking brakes on
14:34 Block to Block Duration: 01:51
14:34 Final Fuel: 2001 Lbls
14:34 Spent Fuel: 4675 Lbls
14:34 Flight Length: 545 NM
14:34 TOD Land Length: 112 NM

Route Map